Time;durP1;ratioP1;P1;durP2;ratioP2;P2;SDS_P1;SDS_P2;PMS_P1;PMS_P2;Temp;Humidity;BMP_temperature;BMP_pressure;BME280_temperature;BME280_humidity;BME280_pressure;Samples;Min_cycle;Max_cycle;Signal;HPM_P1;HPM_P2
2022/04/09 00:00:48;;;;;;;7.45;2.13;;;;;;;9.98;48.34;99210.44;5001703;28;97587;-70
2022/04/09 00:03:14;;;;;;;8.07;3.15;;;;;;;9.57;48.75;99206.69;5002958;28;97172;-71
2022/04/09 00:05:42;;;;;;;6.53;2.58;;;;;;;9.84;48.36;99206.91;5006100;28;102750;-70
2022/04/09 00:08:09;;;;;;;5.55;2.33;;;;;;;9.85;48.57;99220.00;4998603;28;99706;-70
2022/04/09 00:10:35;;;;;;;4.88;2.30;;;;;;;10.17;47.89;99217.38;5001772;28;96884;-71
2022/04/09 00:13:01;;;;;;;9.85;2.20;;;;;;;10.19;47.78;99220.75;4997456;28;97810;-70
2022/04/09 00:15:28;;;;;;;7.30;2.33;;;;;;;9.87;48.46;99228.69;5002084;28;99353;-69
2022/04/09 00:17:54;;;;;;;8.48;2.80;;;;;;;10.32;47.57;99232.28;5000972;28;98941;-69
2022/04/09 00:20:21;;;;;;;5.40;1.83;;;;;;;9.69;48.68;99231.50;5000908;28;97266;-70
2022/04/09 00:22:49;;;;;;;10.18;2.25;;;;;;;9.93;48.88;99232.75;5000674;28;99298;-70
2022/04/09 00:25:21;;;;;;;7.90;2.22;;;;;;;9.73;49.16;99227.75;4999084;28;98895;-70
2022/04/09 00:27:48;;;;;;;9.52;2.38;;;;;;;9.92;48.45;99218.72;4996577;28;98650;-68
2022/04/09 00:30:15;;;;;;;6.95;2.33;;;;;;;10.31;47.98;99222.66;5002909;28;99577;-68
2022/04/09 00:32:41;;;;;;;11.25;2.67;;;;;;;10.24;47.85;99231.91;4998346;28;97662;-68
2022/04/09 00:35:08;;;;;;;11.18;2.88;;;;;;;9.76;49.19;99236.34;5006508;28;99291;-70
2022/04/09 00:37:42;;;;;;;8.38;2.33;;;;;;;9.47;49.91;99234.47;5007153;28;99120;-70
2022/04/09 00:40:12;;;;;;;6.55;2.60;;;;;;;9.63;49.49;99227.44;5008834;28;97258;-69
2022/04/09 00:42:42;;;;;;;7.25;2.55;;;;;;;9.56;49.64;99231.34;4999569;28;96885;-69
2022/04/09 00:45:09;;;;;;;8.90;2.70;;;;;;;9.34;50.50;99225.53;5005512;28;99821;-69
2022/04/09 00:47:36;;;;;;;8.55;2.50;;;;;;;8.97;50.81;99231.94;5001398;28;98301;-68
2022/04/09 00:50:04;;;;;;;4.63;2.78;;;;;;;9.65;49.29;99222.91;4996863;28;96740;-69
2022/04/09 00:52:33;;;;;;;8.20;2.28;;;;;;;9.24;50.33;99237.53;4997307;28;96749;-70
2022/04/09 00:55:02;;;;;;;9.88;2.35;;;;;;;9.52;49.61;99238.56;5003703;28;98917;-69
2022/04/09 00:57:33;;;;;;;8.52;2.28;;;;;;;9.60;49.74;99232.84;4997965;28;98007;-70
2022/04/09 01:00:06;;;;;;;11.88;2.35;;;;;;;9.94;48.46;99234.47;4999833;28;96977;-70
2022/04/09 01:02:32;;;;;;;9.82;2.05;;;;;;;9.42;49.24;99244.41;4998269;28;97384;-69
2022/04/09 01:05:00;;;;;;;7.15;1.77;;;;;;;9.42;49.29;99241.78;5001933;28;98890;-69
2022/04/09 01:07:30;;;;;;;5.82;1.85;;;;;;;9.80;48.66;99251.06;4997833;28;98007;-70
2022/04/09 01:09:57;;;;;;;11.65;2.38;;;;;;;9.24;49.32;99255.97;5005977;28;96882;-69
2022/04/09 01:12:23;;;;;;;6.32;2.13;;;;;;;9.61;49.27;99258.31;4998234;28;96834;-69
2022/04/09 01:14:51;;;;;;;5.53;2.22;;;;;;;9.25;49.61;99255.03;5006503;28;99395;-70
2022/04/09 01:17:18;;;;;;;9.25;2.35;;;;;;;8.66;51.31;99249.31;5001732;28;100453;-70
2022/04/09 01:19:45;;;;;;;9.50;2.03;;;;;;;9.30;49.95;99261.75;4998148;28;97127;-70
2022/04/09 01:22:13;;;;;;;7.95;1.88;;;;;;;9.21;50.28;99262.25;4999695;28;96886;-68
2022/04/09 01:24:39;;;;;;;6.90;1.83;;;;;;;9.65;49.00;99280.09;5001402;28;100743;-72
2022/04/09 01:27:06;;;;;;;8.60;1.85;;;;;;;9.57;48.77;99270.81;4996908;28;99201;-70
2022/04/09 01:29:32;;;;;;;7.45;1.60;;;;;;;9.50;49.59;99279.13;4999476;28;96803;-69
2022/04/09 01:31:59;;;;;;;4.57;1.90;;;;;;;9.16;50.47;99283.56;4997149;28;97270;-70
2022/04/09 01:34:25;;;;;;;6.20;1.90;;;;;;;8.83;50.88;99290.59;4999342;28;99585;-71
2022/04/09 01:36:52;;;;;;;9.93;2.10;;;;;;;9.00;50.37;99289.72;4998184;28;100864;-70
2022/04/09 01:39:19;;;;;;;8.88;2.20;;;;;;;8.48;52.37;99309.94;5004646;28;98558;-70
2022/04/09 01:41:46;;;;;;;9.65;1.83;;;;;;;8.31;51.97;99295.00;5005721;28;96877;-69
2022/04/09 01:44:13;;;;;;;8.50;1.70;;;;;;;8.23;52.78;99300.59;4999152;28;98939;-70
2022/04/09 01:46:44;;;;;;;9.80;1.42;;;;;;;8.73;51.76;99302.50;5004084;28;98640;-71
2022/04/09 01:49:11;;;;;;;8.30;1.98;;;;;;;8.50;52.06;99300.19;4994873;28;98627;-69
2022/04/09 01:51:38;;;;;;;5.38;1.50;;;;;;;8.75;51.52;99301.53;4995954;28;98529;-70
2022/04/09 01:54:04;;;;;;;12.15;2.63;;;;;;;8.65;51.49;99296.81;4998488;28;99421;-70
2022/04/09 01:56:32;;;;;;;9.93;2.05;;;;;;;8.84;51.33;99309.88;4997611;28;99169;-69
2022/04/09 01:58:59;;;;;;;10.23;1.98;;;;;;;9.25;50.12;99308.59;5004239;28;97714;-70
2022/04/09 02:01:25;;;;;;;9.63;2.05;;;;;;;8.56;51.53;99321.81;5003584;28;96743;-69
2022/04/09 02:03:52;;;;;;;11.90;1.77;;;;;;;8.68;51.89;99320.34;5003880;28;97718;-69
2022/04/09 02:06:18;;;;;;;11.43;3.17;;;;;;;9.17;50.66;99316.91;5004263;28;99411;-68
2022/04/09 02:08:45;;;;;;;9.60;1.70;;;;;;;9.46;49.96;99327.69;5001286;28;96664;-69
2022/04/09 02:11:11;;;;;;;8.65;2.05;;;;;;;8.97;51.11;99335.53;4995866;28;98819;-68
2022/04/09 02:13:39;;;;;;;6.22;1.80;;;;;;;8.54;52.13;99343.88;4997734;28;102518;-68
2022/04/09 02:16:06;;;;;;;8.20;2.35;;;;;;;8.37;53.05;99337.66;4998316;28;98974;-68
2022/04/09 02:18:32;;;;;;;9.10;1.88;;;;;;;8.39;52.58;99346.34;4995958;28;97892;-70
2022/04/09 02:20:59;;;;;;;8.65;1.92;;;;;;;8.59;52.41;99347.16;5006094;28;98532;-69
2022/04/09 02:23:25;;;;;;;9.60;1.90;;;;;;;8.47;52.40;99350.38;5003493;28;99364;-70
2022/04/09 02:25:52;;;;;;;11.40;2.08;;;;;;;8.32;53.04;99351.97;4998614;28;99184;-70
2022/04/09 02:28:18;;;;;;;6.18;2.42;;;;;;;8.16;53.54;99358.84;4997000;28;96743;-71
2022/04/09 02:30:46;;;;;;;9.93;2.38;;;;;;;8.00;54.32;99356.97;5001157;28;97549;-70
2022/04/09 02:33:13;;;;;;;11.10;2.05;;;;;;;8.25;53.68;99363.69;5000726;28;99059;-70
2022/04/09 02:35:40;;;;;;;8.63;2.10;;;;;;;7.57;55.35;99365.94;5002096;28;98249;-69
2022/04/09 02:38:08;;;;;;;7.35;1.67;;;;;;;7.87;55.02;99376.00;5004950;28;97510;-69
2022/04/09 02:40:36;;;;;;;7.55;2.15;;;;;;;7.71;55.14;99367.09;5005037;28;96799;-68
2022/04/09 02:43:03;;;;;;;7.72;2.30;;;;;;;7.64;55.60;99370.94;4994696;28;99295;-72
2022/04/09 02:45:29;;;;;;;9.55;2.38;;;;;;;8.09;54.36;99374.06;5006526;28;99438;-69
2022/04/09 02:47:57;;;;;;;7.20;2.15;;;;;;;7.69;55.43;99382.09;4998169;28;97095;-68
2022/04/09 02:50:24;;;;;;;10.82;2.22;;;;;;;8.17;54.13;99386.88;4996042;28;96837;-68
2022/04/09 02:52:50;;;;;;;9.82;2.53;;;;;;;8.00;54.57;99399.06;5002304;28;99838;-69
2022/04/09 02:55:17;;;;;;;5.78;1.70;;;;;;;7.96;54.81;99401.88;4998682;28;99741;-68
2022/04/09 02:57:43;;;;;;;8.55;2.33;;;;;;;8.04;54.30;99405.00;4996122;28;97304;-69
2022/04/09 03:00:13;;;;;;;10.68;2.38;;;;;;;7.73;55.55;99417.84;5000675;28;97104;-70
2022/04/09 03:02:39;;;;;;;8.18;2.17;;;;;;;8.14;54.78;99427.31;4997446;28;99275;-68
2022/04/09 03:05:08;;;;;;;12.45;2.55;;;;;;;7.80;55.08;99419.28;4999870;28;97459;-69
2022/04/09 03:07:35;;;;;;;7.97;2.78;;;;;;;7.79;54.64;99425.47;4995341;28;96791;-68
2022/04/09 03:10:02;;;;;;;15.88;3.97;;;;;;;7.75;55.34;99426.50;5001238;28;97332;-68
2022/04/09 03:12:29;;;;;;;8.00;1.65;;;;;;;7.88;55.24;99438.19;4997881;28;99011;-69
2022/04/09 03:14:56;;;;;;;6.82;2.17;;;;;;;7.74;55.28;99440.59;4992148;28;98248;-69
2022/04/09 03:17:23;;;;;;;8.35;2.13;;;;;;;7.77;55.09;99441.31;4999815;28;96861;-69
2022/04/09 03:19:49;;;;;;;6.43;1.90;;;;;;;7.69;55.87;99442.56;5003636;28;96796;-72
2022/04/09 03:22:17;;;;;;;12.13;2.03;;;;;;;8.03;54.78;99453.28;5000966;28;100730;-70
2022/04/09 03:24:44;;;;;;;10.70;3.13;;;;;;;7.74;55.72;99449.34;4999997;28;101813;-69
2022/04/09 03:27:10;;;;;;;9.98;2.38;;;;;;;7.49;56.05;99453.94;5004616;28;99452;-70
2022/04/09 03:29:37;;;;;;;6.93;2.20;;;;;;;7.79;55.58;99454.41;5002753;28;98592;-70
2022/04/09 03:32:04;;;;;;;6.97;1.90;;;;;;;7.54;56.27;99459.88;5001214;28;101518;-72
2022/04/09 03:34:30;;;;;;;11.02;2.47;;;;;;;7.25;57.13;99469.00;4997507;28;98451;-70
2022/04/09 03:36:56;;;;;;;7.60;2.42;;;;;;;7.89;55.57;99466.19;4997097;28;98820;-70
2022/04/09 03:39:24;;;;;;;10.57;2.45;;;;;;;7.95;55.33;99474.66;4995744;28;96880;-70
2022/04/09 03:41:51;;;;;;;6.45;2.55;;;;;;;7.64;55.65;99482.22;4998186;28;99388;-70
2022/04/09 03:44:18;;;;;;;12.68;1.95;;;;;;;7.34;56.94;99480.91;4992123;28;98871;-70
2022/04/09 03:46:44;;;;;;;9.35;2.38;;;;;;;7.61;56.61;99480.56;4998261;28;96985;-70
2022/04/09 03:49:11;;;;;;;10.73;2.65;;;;;;;7.73;56.47;99491.47;5001330;28;96880;-71
2022/04/09 03:51:38;;;;;;;10.15;3.15;;;;;;;7.76;56.18;99489.56;4999006;28;98233;-72
2022/04/09 03:54:05;;;;;;;11.85;3.13;;;;;;;7.34;56.95;99492.28;4992912;28;98699;-70
2022/04/09 03:56:33;;;;;;;9.38;2.40;;;;;;;7.74;56.50;99501.09;4997891;28;97463;-70
2022/04/09 03:58:59;;;;;;;7.15;2.55;;;;;;;7.12;57.79;99502.81;4995540;28;96852;-70
2022/04/09 04:01:27;;;;;;;7.45;2.42;;;;;;;7.08;58.63;99513.50;5000721;28;99209;-69
2022/04/09 04:03:53;;;;;;;9.77;2.13;;;;;;;7.27;58.41;99514.47;4994962;28;98932;-70
2022/04/09 04:06:20;;;;;;;14.82;2.80;;;;;;;7.45;57.45;99521.56;4999610;28;96748;-69
2022/04/09 04:08:47;;;;;;;9.98;2.97;;;;;;;7.74;56.58;99522.13;5002063;28;96841;-71
2022/04/09 04:11:13;;;;;;;8.50;2.53;;;;;;;7.79;56.22;99534.16;5001315;28;98961;-71
2022/04/09 04:13:44;;;;;;;9.88;2.92;;;;;;;7.88;55.95;99548.66;5001166;28;101241;-72
2022/04/09 04:16:11;;;;;;;9.25;2.40;;;;;;;7.82;56.28;99552.41;4998873;28;96886;-70
2022/04/09 04:18:37;;;;;;;16.90;2.35;;;;;;;7.89;55.77;99553.00;5006550;28;98926;-70
2022/04/09 04:21:04;;;;;;;9.35;2.75;;;;;;;8.12;54.74;99568.66;4997733;28;100117;-70
2022/04/09 04:23:30;;;;;;;10.88;2.40;;;;;;;7.70;56.32;99573.09;4997081;28;98105;-70
2022/04/09 04:25:57;;;;;;;11.02;2.08;;;;;;;7.13;57.46;99571.97;4998784;28;96919;-69
2022/04/09 04:28:23;;;;;;;14.73;2.53;;;;;;;7.40;56.76;99584.00;5002944;28;97298;-69
2022/04/09 04:30:51;;;;;;;12.90;2.55;;;;;;;7.63;56.60;99588.28;5002481;28;98947;-69
2022/04/09 04:33:18;;;;;;;10.43;2.80;;;;;;;7.52;56.64;99594.00;5002416;28;99390;-68
2022/04/09 04:35:45;;;;;;;9.63;2.58;;;;;;;8.16;55.10;99591.25;4996969;28;98347;-70
2022/04/09 04:38:12;;;;;;;8.77;2.53;;;;;;;8.18;54.77;99599.94;5005312;28;97635;-69
2022/04/09 04:40:38;;;;;;;11.65;2.63;;;;;;;7.89;55.64;99608.22;4997327;28;102309;-69
2022/04/09 04:43:05;;;;;;;14.07;2.97;;;;;;;7.59;56.33;99611.22;5003752;28;101234;-69
2022/04/09 04:45:32;;;;;;;15.70;2.50;;;;;;;7.81;55.71;99621.69;4997547;28;96834;-69
2022/04/09 04:48:00;;;;;;;12.75;2.47;;;;;;;7.48;56.97;99613.44;5002350;28;97256;-68
2022/04/09 04:50:26;;;;;;;10.57;3.17;;;;;;;7.43;57.21;99628.53;5006348;28;99445;-68
2022/04/09 04:52:53;;;;;;;14.15;2.72;;;;;;;7.09;57.85;99636.03;5000847;28;99719;-69
2022/04/09 04:55:19;;;;;;;12.65;2.90;;;;;;;7.64;56.92;99634.69;5001156;28;97489;-69
2022/04/09 04:57:47;;;;;;;14.65;3.47;;;;;;;7.89;55.82;99650.31;4997438;28;96734;-70
2022/04/09 05:00:17;;;;;;;12.07;2.90;;;;;;;7.71;56.11;99644.06;5001074;28;99088;-68
2022/04/09 05:02:44;;;;;;;12.30;2.75;;;;;;;7.70;56.04;99652.00;5006888;28;98812;-69
2022/04/09 05:05:12;;;;;;;12.57;2.75;;;;;;;7.52;56.52;99656.22;4995405;28;96880;-69
2022/04/09 05:07:43;;;;;;;8.43;2.50;;;;;;;7.89;55.28;99655.56;5006458;28;97630;-69
2022/04/09 05:10:13;;;;;;;13.82;2.85;;;;;;;7.79;55.80;99657.75;5002156;28;97572;-69
2022/04/09 05:12:42;;;;;;;12.95;2.92;;;;;;;7.66;56.09;99669.69;5004842;28;99248;-70
2022/04/09 05:15:12;;;;;;;12.52;2.72;;;;;;;8.05;54.70;99674.22;5004419;28;98526;-69
2022/04/09 05:17:39;;;;;;;15.73;2.58;;;;;;;8.10;54.31;99680.13;5003206;28;96765;-70
2022/04/09 05:20:07;;;;;;;12.77;2.58;;;;;;;7.96;55.31;99699.13;5003812;28;99392;-68
2022/04/09 05:22:36;;;;;;;12.40;3.20;;;;;;;7.98;54.93;99698.16;5002175;28;98158;-69
2022/04/09 05:25:04;;;;;;;18.30;2.65;;;;;;;8.02;54.75;99704.13;4998619;28;97639;-68
2022/04/09 05:27:31;;;;;;;16.55;2.92;;;;;;;7.45;55.77;99715.22;4998809;28;97013;-69
2022/04/09 05:29:57;;;;;;;10.95;2.58;;;;;;;7.87;55.62;99716.16;5005069;28;98799;-70
2022/04/09 05:32:23;;;;;;;10.35;3.00;;;;;;;8.40;53.75;99711.28;5000212;28;100944;-69
2022/04/09 05:34:50;;;;;;;11.90;2.55;;;;;;;8.47;53.01;99721.59;4998713;28;98303;-69
2022/04/09 05:37:17;;;;;;;11.65;2.85;;;;;;;7.56;55.64;99727.03;5003806;28;97257;-70
2022/04/09 05:39:46;;;;;;;16.73;2.88;;;;;;;7.75;55.45;99737.66;5000167;28;99699;-69
2022/04/09 05:42:13;;;;;;;13.77;2.38;;;;;;;7.68;55.50;99746.69;4999781;28;99274;-70
2022/04/09 05:44:39;;;;;;;16.65;2.90;;;;;;;8.27;54.15;99743.44;5000745;28;97629;-71
2022/04/09 05:47:06;;;;;;;9.90;2.45;;;;;;;8.26;53.66;99754.91;4998344;28;96851;-72
2022/04/09 05:49:33;;;;;;;9.05;2.40;;;;;;;8.12;53.75;99759.88;5000788;28;99260;-70
2022/04/09 05:51:59;;;;;;;10.68;2.35;;;;;;;8.63;53.57;99764.75;5000435;28;100373;-71
2022/04/09 05:54:26;;;;;;;13.40;2.65;;;;;;;8.55;53.13;99772.97;5007987;28;96857;-71
2022/04/09 05:56:54;;;;;;;14.23;2.55;;;;;;;8.63;53.65;99775.28;4995007;28;96855;-71
2022/04/09 05:59:20;;;;;;;9.60;2.15;;;;;;;8.95;52.38;99782.63;5003702;28;100084;-71
2022/04/09 06:01:47;;;;;;;8.60;2.78;;;;;;;8.82;52.73;99797.28;4993508;28;100693;-71
2022/04/09 06:04:19;;;;;;;10.48;2.35;;;;;;;9.13;52.06;99792.34;5002079;28;96877;-72
2022/04/09 06:06:48;;;;;;;9.93;3.22;;;;;;;9.01;52.33;99808.72;4997767;28;97165;-71
2022/04/09 06:09:15;;;;;;;12.75;2.80;;;;;;;8.88;51.94;99812.81;5004877;28;102219;-72
2022/04/09 06:11:42;;;;;;;9.40;2.10;;;;;;;8.75;52.53;99811.63;4999109;28;101204;-71
2022/04/09 06:14:10;;;;;;;13.15;2.10;;;;;;;9.21;51.66;99818.38;5000237;28;98936;-71
2022/04/09 06:16:38;;;;;;;7.53;2.38;;;;;;;8.66;52.70;99820.75;4994407;28;98913;-70
2022/04/09 06:19:05;;;;;;;8.93;2.20;;;;;;;9.11;51.79;99820.59;5002892;28;99932;-70
2022/04/09 06:21:33;;;;;;;12.32;2.40;;;;;;;9.22;51.33;99830.63;5000278;28;98047;-70
2022/04/09 06:24:00;;;;;;;10.93;2.60;;;;;;;8.99;51.72;99830.81;5004018;28;96936;-71
2022/04/09 06:26:28;;;;;;;13.18;2.33;;;;;;;9.03;51.68;99838.50;5003474;28;96895;-70
2022/04/09 06:28:55;;;;;;;8.27;2.67;;;;;;;9.11;51.37;99836.41;5006025;28;98935;-69
2022/04/09 06:31:23;;;;;;;11.18;2.25;;;;;;;9.07;51.23;99844.47;5004189;28;99532;-69
2022/04/09 06:33:49;;;;;;;5.57;2.40;;;;;;;9.73;50.09;99840.59;5005149;28;96763;-69
2022/04/09 06:36:16;;;;;;;10.85;2.30;;;;;;;9.13;50.80;99834.53;5007007;28;97943;-70
2022/04/09 06:38:43;;;;;;;15.15;3.25;;;;;;;9.31;50.01;99845.19;5001355;28;99708;-69
2022/04/09 06:41:09;;;;;;;8.68;2.65;;;;;;;9.69;49.59;99852.22;5000270;28;101130;-70
2022/04/09 06:43:35;;;;;;;10.82;3.35;;;;;;;10.17;48.56;99853.53;4994950;28;96863;-69
2022/04/09 06:46:02;;;;;;;11.30;2.47;;;;;;;9.99;48.17;99855.22;4998790;28;97915;-70
2022/04/09 06:48:30;;;;;;;10.02;2.33;;;;;;;9.46;49.38;99860.31;4999413;28;101779;-69
2022/04/09 06:50:57;;;;;;;10.25;2.40;;;;;;;9.80;48.78;99862.28;5000255;28;98127;-70
2022/04/09 06:53:24;;;;;;;18.48;2.58;;;;;;;10.27;47.34;99866.22;4996164;28;97480;-69
2022/04/09 06:55:50;;;;;;;31.02;4.13;;;;;;;10.10;47.80;99867.94;4999092;28;96985;-69
2022/04/09 06:58:17;;;;;;;9.68;2.97;;;;;;;9.31;49.82;99880.34;5002064;28;100587;-70
2022/04/09 07:00:44;;;;;;;7.38;2.25;;;;;;;10.02;48.42;99880.63;4994433;28;98909;-70
2022/04/09 07:03:12;;;;;;;16.50;3.95;;;;;;;9.39;48.53;99885.25;4999381;28;97883;-72
2022/04/09 07:05:42;;;;;;;13.57;3.00;;;;;;;9.74;48.15;99891.59;4998644;28;98601;-69
2022/04/09 07:08:09;;;;;;;12.50;2.22;;;;;;;10.19;47.28;99899.19;5004245;28;99355;-69
2022/04/09 07:10:37;;;;;;;14.07;2.33;;;;;;;11.00;45.47;99890.78;5008503;28;101932;-70
2022/04/09 07:13:04;;;;;;;13.80;2.80;;;;;;;11.27;44.22;99902.59;5002108;28;97287;-72
2022/04/09 07:15:31;;;;;;;11.90;2.50;;;;;;;11.04;44.74;99893.19;5004526;28;97000;-71
2022/04/09 07:17:58;;;;;;;12.73;2.15;;;;;;;11.12;44.57;99901.59;4996270;28;99261;-71
2022/04/09 07:20:24;;;;;;;19.25;3.95;;;;;;;10.78;44.78;99906.84;4998385;28;100548;-71
2022/04/09 07:22:53;;;;;;;13.05;2.08;;;;;;;10.99;45.01;99907.59;4991280;28;97986;-71
2022/04/09 07:25:19;;;;;;;11.38;2.15;;;;;;;10.65;45.80;99909.25;5003987;28;96899;-72
2022/04/09 07:27:48;;;;;;;5.75;2.15;;;;;;;10.58;45.35;99918.41;5001548;28;100754;-71
2022/04/09 07:30:16;;;;;;;15.23;2.17;;;;;;;9.31;49.56;99924.28;5004554;28;99141;-69
2022/04/09 07:32:43;;;;;;;14.82;2.40;;;;;;;9.86;48.03;99930.59;4994295;28;97341;-69
2022/04/09 07:35:12;;;;;;;13.52;2.47;;;;;;;10.57;46.74;99931.69;4998107;28;96891;-69
2022/04/09 07:37:46;;;;;;;12.93;2.63;;;;;;;11.19;45.35;99940.03;4998313;28;97938;-71
2022/04/09 07:40:16;;;;;;;8.85;2.00;;;;;;;10.62;46.29;99938.47;5000821;28;97582;-70
2022/04/09 07:42:44;;;;;;;10.57;2.08;;;;;;;10.72;45.81;99945.00;4999386;28;97235;-71
2022/04/09 07:45:14;;;;;;;11.20;2.80;;;;;;;11.17;44.80;99951.59;5002227;28;97970;-72
2022/04/09 07:47:41;;;;;;;15.10;3.00;;;;;;;10.76;45.11;99957.13;5002243;28;99611;-71
2022/04/09 07:50:10;;;;;;;14.57;2.20;;;;;;;10.48;45.95;99950.63;4996454;28;98952;-70
2022/04/09 07:52:37;;;;;;;11.27;2.22;;;;;;;10.29;45.14;99945.38;5002242;28;97217;-71
2022/04/09 07:55:05;;;;;;;8.65;1.88;;;;;;;11.54;42.86;99961.16;5001099;28;97569;-70
2022/04/09 07:57:33;;;;;;;14.55;2.60;;;;;;;11.11;43.34;99963.34;5007004;28;101898;-71
2022/04/09 08:00:06;;;;;;;13.02;2.45;;;;;;;11.27;43.01;99963.44;4996542;28;101353;-70
2022/04/09 08:02:33;;;;;;;8.43;2.05;;;;;;;12.54;40.01;99961.03;4994651;28;96775;-70
2022/04/09 08:04:59;;;;;;;13.45;2.20;;;;;;;11.81;41.23;99967.72;4995760;28;96948;-70
2022/04/09 08:07:26;;;;;;;7.32;2.10;;;;;;;11.80;41.37;99973.06;5002159;28;98928;-71
2022/04/09 08:09:53;;;;;;;11.00;2.17;;;;;;;10.98;43.07;99974.59;4998811;28;100950;-72
2022/04/09 08:12:20;;;;;;;11.45;2.55;;;;;;;11.09;42.74;99982.88;5002516;28;96814;-69
2022/04/09 08:14:48;;;;;;;12.73;2.08;;;;;;;12.17;40.04;99978.09;4996777;28;98607;-71
2022/04/09 08:17:18;;;;;;;11.80;2.15;;;;;;;12.27;39.70;99986.44;5010336;28;99320;-70
2022/04/09 08:19:44;;;;;;;9.90;2.55;;;;;;;11.57;40.48;99983.03;5005988;28;98191;-70
2022/04/09 08:22:11;;;;;;;12.15;2.40;;;;;;;12.88;38.66;99996.25;5005822;28;97590;-68
2022/04/09 08:24:42;;;;;;;12.68;2.55;;;;;;;11.69;40.54;99993.91;4997757;28;98024;-71
2022/04/09 08:27:09;;;;;;;10.45;2.10;;;;;;;12.35;40.33;100003.59;5004311;28;98899;-70
2022/04/09 08:29:36;;;;;;;7.55;1.90;;;;;;;11.99;39.86;100005.59;5004811;28;97644;-71
2022/04/09 08:32:05;;;;;;;13.55;2.20;;;;;;;11.19;40.61;100003.47;5005739;28;98439;-72
2022/04/09 08:34:34;;;;;;;9.65;2.67;;;;;;;11.72;39.78;100006.97;5009356;28;96957;-72
2022/04/09 08:37:01;;;;;;;11.75;3.17;;;;;;;12.16;39.50;100023.22;5008439;28;99379;-72
2022/04/09 08:39:28;;;;;;;12.82;1.95;;;;;;;12.03;38.95;100019.50;5001481;28;99405;-71
2022/04/09 08:41:55;;;;;;;12.32;2.55;;;;;;;10.28;42.17;100022.88;5000000;28;98172;-71
2022/04/09 08:44:22;;;;;;;7.65;1.90;;;;;;;11.39;40.49;100015.72;4999446;28;97383;-71
2022/04/09 08:46:49;;;;;;;8.30;2.00;;;;;;;11.45;39.51;100014.53;5001869;28;100088;-71
2022/04/09 08:49:16;;;;;;;12.75;1.75;;;;;;;10.70;40.95;100017.34;5003545;28;98802;-72
2022/04/09 08:51:43;;;;;;;10.18;2.00;;;;;;;11.18;39.41;100012.34;4999664;28;97305;-70
2022/04/09 08:54:10;;;;;;;8.55;2.13;;;;;;;11.29;39.33;100011.78;4990390;28;98740;-70
2022/04/09 08:56:38;;;;;;;9.68;1.90;;;;;;;12.45;37.67;100021.66;4997864;28;98956;-71
2022/04/09 08:59:05;;;;;;;10.60;2.40;;;;;;;12.36;37.49;100017.69;4992150;28;99148;-71
2022/04/09 09:01:32;;;;;;;11.43;1.80;;;;;;;11.32;39.22;100014.31;5000449;28;97339;-71
2022/04/09 09:04:00;;;;;;;20.65;2.65;;;;;;;12.56;37.47;100013.97;4998154;28;97949;-71
2022/04/09 09:06:30;;;;;;;6.85;1.92;;;;;;;13.14;36.06;100020.38;5004589;28;98823;-70
2022/04/09 09:08:57;;;;;;;12.07;1.75;;;;;;;13.00;35.14;100032.69;5004496;28;102641;-70
2022/04/09 09:11:26;;;;;;;9.98;1.80;;;;;;;12.51;36.59;100023.97;4994998;28;97359;-69
2022/04/09 09:13:54;;;;;;;6.97;1.52;;;;;;;13.57;35.20;100015.25;4991699;28;97275;-70
2022/04/09 09:16:27;;;;;;;8.63;1.95;;;;;;;13.40;34.82;100024.16;5002402;28;99289;-72
2022/04/09 09:18:56;;;;;;;9.77;2.30;;;;;;;13.13;34.72;100017.81;5001819;28;99175;-69
2022/04/09 09:21:26;;;;;;;9.45;1.42;;;;;;;12.96;33.94;100032.00;4995051;28;96868;-68
2022/04/09 09:24:10;;;;;;;7.95;1.90;;;;;;;12.46;34.25;100031.31;4991241;28;98308;-70
2022/04/09 09:26:38;;;;;;;6.45;1.20;;;;;;;12.58;33.97;100025.34;4993176;28;98002;-70
2022/04/09 09:29:06;;;;;;;12.55;2.33;;;;;;;13.12;33.78;100032.91;4999712;28;99343;-72
2022/04/09 09:31:42;;;;;;;8.98;1.58;;;;;;;13.44;32.83;100015.09;4994813;28;97687;-70
2022/04/09 09:34:09;;;;;;;;;;;;;;;12.78;33.41;100033.03;5000933;28;97366;-71
2022/04/09 09:36:38;;;;;;;;;;;;;;;13.14;33.71;100023.03;4993195;28;100075;-71
2022/04/09 09:39:06;;;;;;;8.00;2.30;;;;;;;13.70;32.88;100018.00;4997728;28;98755;-71
2022/04/09 09:41:33;;;;;;;7.68;1.50;;;;;;;12.86;32.96;100020.22;4995441;28;97277;-72
2022/04/09 09:44:05;;;;;;;10.23;2.33;;;;;;;12.10;34.08;100029.69;4989046;28;99235;-71
2022/04/09 09:46:33;;;;;;;6.03;1.42;;;;;;;13.54;32.90;100028.69;4992849;28;100695;-71
2022/04/09 09:49:00;;;;;;;8.20;1.90;;;;;;;14.18;32.04;100027.44;4999668;28;98851;-71
2022/04/09 09:51:29;;;;;;;7.40;2.17;;;;;;;14.44;31.29;100024.06;4994965;28;97108;-71
2022/04/09 09:54:06;;;;;;;16.73;2.00;;;;;;;14.89;30.46;100028.28;4996261;28;97176;-72
2022/04/09 09:56:35;;;;;;;14.45;1.80;;;;;;;13.20;32.15;100023.63;4985298;28;100241;-71
2022/04/09 09:59:03;;;;;;;8.15;1.63;;;;;;;12.71;32.86;100039.63;5001571;28;98933;-72
2022/04/09 10:01:31;;;;;;;6.32;1.55;;;;;;;12.27;33.92;100050.81;4996048;28;97303;-72
2022/04/09 10:04:06;;;;;;;14.48;2.40;;;;;;;11.52;35.19;100043.25;5001498;28;97238;-69
2022/04/09 10:06:34;;;;;;;9.30;2.00;;;;;;;11.98;35.21;100044.44;4993240;28;97832;-71
2022/04/09 10:09:05;;;;;;;12.57;1.42;;;;;;;12.80;33.66;100041.75;4995059;28;97726;-72
2022/04/09 10:11:35;;;;;;;5.80;1.63;;;;;;;12.92;32.93;100041.09;4993315;28;97107;-71
2022/04/09 10:14:02;;;;;;;8.27;1.67;;;;;;;12.85;32.58;100025.59;4996878;28;97208;-70
2022/04/09 10:16:32;;;;;;;9.52;1.55;;;;;;;12.50;32.80;100044.31;4999777;28;97810;-70
2022/04/09 10:19:01;;;;;;;6.53;1.40;;;;;;;12.57;32.22;100034.22;4995422;28;98752;-72
2022/04/09 10:21:29;;;;;;;5.95;1.35;;;;;;;12.44;32.45;100036.69;4999000;28;96808;-72
2022/04/09 10:24:00;;;;;;;7.70;1.10;;;;;;;11.84;34.08;100041.66;5004273;28;97460;-70
2022/04/09 10:26:28;;;;;;;4.90;1.17;;;;;;;12.33;33.83;100045.22;4990955;28;99788;-70
2022/04/09 10:29:05;;;;;;;10.77;1.55;;;;;;;11.83;34.65;100047.00;4997015;28;98799;-69
2022/04/09 10:31:36;;;;;;;8.35;1.38;;;;;;;11.96;34.13;100042.78;4993621;28;98117;-71
2022/04/09 10:34:07;;;;;;;10.82;1.55;;;;;;;13.06;32.77;100038.50;4996582;28;97359;-72
2022/04/09 10:37:05;;;;;;;7.97;1.52;;;;;;;13.20;32.69;100037.72;4994964;28;100414;-73
2022/04/09 10:39:45;;;;;;;8.60;1.52;;;;;;;12.59;33.69;100057.06;4998670;28;101548;-71
2022/04/09 10:42:38;;;;;;;7.85;1.50;;;;;;;12.87;33.38;100044.91;4996367;28;98720;-70
2022/04/09 10:45:16;;;;;;;5.25;1.40;;;;;;;13.51;32.58;100039.50;4991353;28;97736;-70
2022/04/09 10:48:07;;;;;;;5.80;1.25;;;;;;;13.01;33.30;100039.69;4995150;28;98840;-69
2022/04/09 10:50:55;;;;;;;4.28;1.30;;;;;;;13.99;31.87;100046.31;4998244;28;101011;-69
2022/04/09 10:53:23;;;;;;;6.25;1.15;;;;;;;14.07;31.75;100041.41;4991564;28;97290;-70
2022/04/09 10:56:17;;;;;;;5.47;1.15;;;;;;;12.73;33.02;100030.63;4996756;28;96873;-69
2022/04/09 10:59:01;;;;;;;4.70;1.40;;;;;;;12.97;33.16;100051.44;4990979;28;100010;-71
2022/04/09 11:01:51;;;;;;;10.63;1.77;;;;;;;12.97;33.10;100054.09;5000960;28;98978;-71
2022/04/09 11:04:51;;;;;;;4.65;1.63;;;;;;;13.37;32.95;100042.09;4996160;28;97167;-70
2022/04/09 11:07:20;;;;;;;8.13;1.77;;;;;;;13.44;32.78;100043.44;4923459;28;97015;-71
2022/04/09 11:09:56;;;;;;;4.13;1.45;;;;;;;13.09;33.10;100048.94;4923514;28;97846;-71
2022/04/09 11:12:24;;;;;;;5.07;1.40;;;;;;;13.67;32.50;100047.38;4960433;28;98912;-70
2022/04/09 11:14:52;;;;;;;7.18;1.25;;;;;;;13.87;32.23;100031.13;5003499;28;97785;-70
2022/04/09 11:17:25;;;;;;;9.43;1.40;;;;;;;13.38;32.44;100033.19;4992755;28;97643;-70
2022/04/09 11:19:52;;;;;;;7.93;1.25;;;;;;;14.17;31.68;100033.72;4993122;28;98934;-71
2022/04/09 11:22:21;;;;;;;6.22;1.20;;;;;;;14.39;31.30;100034.13;4993656;28;98831;-72
2022/04/09 11:24:48;;;;;;;5.65;1.25;;;;;;;13.72;31.88;100032.06;4999407;28;98222;-70
2022/04/09 11:27:16;;;;;;;5.47;1.20;;;;;;;13.23;31.78;100031.41;4991685;28;97154;-70
2022/04/09 11:29:46;;;;;;;5.22;1.40;;;;;;;13.30;32.42;100035.44;4995967;28;98070;-71
2022/04/09 11:32:19;;;;;;;8.35;1.55;;;;;;;14.17;31.09;100041.72;4992573;28;101569;-72
2022/04/09 11:34:52;;;;;;;6.65;1.27;;;;;;;13.93;30.91;100041.38;4992824;28;97141;-74
2022/04/09 11:37:19;;;;;;;3.78;1.30;;;;;;;13.76;30.71;100039.75;4983494;28;99097;-70